Time;durP1;ratioP1;P1;durP2;ratioP2;P2;SDS_P1;SDS_P2;PMS_P1;PMS_P2;Temp;Humidity;BMP_temperature;BMP_pressure;BME280_temperature;BME280_humidity;BME280_pressure;Samples;Min_cycle;Max_cycle;Signal;HPM_P1;HPM_P2
2021/06/10 00:00:44;;;;;;;2.67;1.70;;;;;;;18.38;56.87;101864.81;5033180;28;20040;-71
2021/06/10 00:03:09;;;;;;;1.58;1.30;;;;;;;18.35;56.58;101862.56;5026324;28;20038;-71
2021/06/10 00:05:35;;;;;;;4.85;1.63;;;;;;;18.32;56.63;101867.38;5028081;28;20030;-70
2021/06/10 00:08:01;;;;;;;1.98;1.60;;;;;;;18.26;57.05;101868.91;5024880;28;20037;-71
2021/06/10 00:10:29;;;;;;;6.32;1.80;;;;;;;18.21;57.05;101871.25;5027715;28;20045;-71
2021/06/10 00:12:54;;;;;;;2.65;1.20;;;;;;;18.16;56.67;101879.69;5042126;28;20048;-71
2021/06/10 00:15:23;;;;;;;2.47;1.40;;;;;;;18.12;55.99;101873.16;5028862;28;20029;-71
2021/06/10 00:17:49;;;;;;;2.75;1.40;;;;;;;18.08;56.34;101877.97;5028593;28;20202;-71
2021/06/10 00:20:16;;;;;;;3.28;2.20;;;;;;;18.02;56.84;101868.16;5027936;28;20135;-71
2021/06/10 00:22:42;;;;;;;1.85;1.30;;;;;;;17.96;57.59;101874.13;5026987;28;20478;-71
2021/06/10 00:25:08;;;;;;;2.55;1.70;;;;;;;17.92;58.08;101882.53;5025655;28;20040;-70
2021/06/10 00:27:36;;;;;;;5.40;2.00;;;;;;;17.86;58.28;101887.50;5027813;28;20120;-70
2021/06/10 00:30:04;;;;;;;2.70;1.33;;;;;;;17.80;58.53;101887.34;5025026;28;20029;-71
2021/06/10 00:32:29;;;;;;;2.83;1.38;;;;;;;17.66;59.18;101886.31;5025474;28;20037;-70
2021/06/10 00:34:54;;;;;;;3.83;1.42;;;;;;;17.48;59.98;101886.66;5041505;28;20103;-70
2021/06/10 00:37:20;;;;;;;1.83;1.33;;;;;;;17.29;60.95;101883.50;5027842;28;20033;-71
2021/06/10 00:39:45;;;;;;;5.88;1.50;;;;;;;17.23;61.71;101876.31;5038166;28;20034;-70
2021/06/10 00:42:11;;;;;;;2.20;1.63;;;;;;;17.23;61.77;101883.38;5027823;28;20106;-70
2021/06/10 00:44:36;;;;;;;4.22;1.50;;;;;;;17.26;61.93;101883.03;5026025;28;20040;-70
2021/06/10 00:47:03;;;;;;;6.88;1.95;;;;;;;17.28;61.49;101871.38;5041594;28;20029;-70
2021/06/10 00:49:28;;;;;;;2.95;1.80;;;;;;;17.29;60.88;101880.88;5046923;28;20037;-70
2021/06/10 00:51:54;;;;;;;1.55;1.20;;;;;;;17.30;60.20;101871.19;5042540;28;20022;-70
2021/06/10 00:54:20;;;;;;;4.78;1.50;;;;;;;17.29;59.38;101877.41;5044749;28;107196;-70
2021/06/10 00:56:46;;;;;;;3.97;1.60;;;;;;;17.27;58.77;101880.22;5028803;28;20029;-70
2021/06/10 00:59:11;;;;;;;3.42;1.50;;;;;;;17.23;58.67;101871.06;5042735;28;20519;-70
2021/06/10 01:01:37;;;;;;;1.95;1.58;;;;;;;17.21;58.49;101880.91;5025097;28;20040;-70
2021/06/10 01:04:02;;;;;;;1.65;1.25;;;;;;;17.19;58.51;101874.22;5027778;28;20041;-71
2021/06/10 01:06:50;;;;;;;5.30;1.10;;;;;;;17.13;58.71;101876.53;5040702;28;20044;-71
2021/06/10 01:09:35;;;;;;;2.42;1.80;;;;;;;17.11;59.44;101877.72;5024056;28;20038;-70
2021/06/10 01:12:45;;;;;;;2.13;1.35;;;;;;;17.03;59.93;101878.56;5022930;28;20033;-70
2021/06/10 01:15:14;;;;;;;1.80;1.35;;;;;;;16.96;60.33;101868.97;5025776;28;20036;-70
2021/06/10 01:17:46;;;;;;;2.67;1.55;;;;;;;16.92;60.61;101863.25;5023602;28;20521;-70
2021/06/10 01:20:19;;;;;;;2.50;1.43;;;;;;;16.87;60.76;101863.75;5024692;28;20076;-70
2021/06/10 01:22:56;;;;;;;3.10;1.60;;;;;;;16.82;61.09;101866.09;5023103;28;20071;-70
2021/06/10 01:25:34;;;;;;;1.65;1.40;;;;;;;16.79;60.90;101863.75;5040952;28;20033;-70
2021/06/10 01:28:06;;;;;;;3.00;1.83;;;;;;;16.76;60.93;101866.72;5023155;28;20474;-70
2021/06/10 01:30:57;;;;;;;2.22;1.58;;;;;;;16.72;61.08;101863.63;5026678;28;20037;-71
2021/06/10 01:33:26;;;;;;;2.85;1.80;;;;;;;16.67;61.29;101863.34;5023462;28;20040;-70
2021/06/10 01:35:55;;;;;;;5.13;1.80;;;;;;;16.65;61.30;101861.84;5025447;28;20041;-70
2021/06/10 01:38:24;;;;;;;3.75;1.45;;;;;;;16.61;61.67;101865.81;5024546;28;20033;-70
2021/06/10 01:40:51;;;;;;;4.13;1.98;;;;;;;16.59;62.06;101859.91;5025573;28;20044;-70
2021/06/10 01:43:19;;;;;;;4.03;1.65;;;;;;;16.54;62.29;101857.81;5025455;28;20033;-70
2021/06/10 01:45:50;;;;;;;8.00;2.88;;;;;;;16.51;62.67;101866.81;5026920;28;20029;-70
2021/06/10 01:48:19;;;;;;;3.40;1.70;;;;;;;16.49;62.96;101868.78;5036676;28;20065;-70
2021/06/10 01:50:49;;;;;;;2.53;1.67;;;;;;;16.47;63.08;101862.09;5023932;28;20034;-70
2021/06/10 01:53:15;;;;;;;2.95;2.00;;;;;;;16.42;63.35;101865.22;5025535;28;20029;-70
2021/06/10 01:55:42;;;;;;;2.88;1.77;;;;;;;16.35;63.67;101857.22;5025832;28;20029;-70
2021/06/10 01:58:09;;;;;;;4.65;1.80;;;;;;;16.32;63.87;101868.03;5023425;28;20025;-70
2021/06/10 02:00:36;;;;;;;3.00;1.67;;;;;;;16.29;63.95;101854.47;5022505;28;20033;-70
2021/06/10 02:03:02;;;;;;;2.78;1.75;;;;;;;16.26;63.79;101857.44;5022254;28;20038;-70
2021/06/10 02:05:28;;;;;;;3.78;1.92;;;;;;;16.24;64.00;101856.78;5025278;28;20095;-70
2021/06/10 02:07:55;;;;;;;5.93;1.75;;;;;;;16.17;64.34;101853.19;5023618;28;20395;-70
2021/06/10 02:10:23;;;;;;;2.88;1.77;;;;;;;16.12;64.47;101857.13;5038613;28;20041;-70
2021/06/10 02:12:49;;;;;;;2.38;1.85;;;;;;;16.09;64.59;101844.38;5024059;28;20116;-70
2021/06/10 02:15:16;;;;;;;3.45;1.60;;;;;;;16.06;64.65;101846.50;5026303;28;20417;-70
2021/06/10 02:17:42;;;;;;;2.83;1.50;;;;;;;16.03;64.73;101852.91;5039847;28;20147;-71
2021/06/10 02:20:12;;;;;;;4.80;2.10;;;;;;;16.00;64.91;101852.41;5022999;28;20149;-70
2021/06/10 02:22:37;;;;;;;4.57;2.10;;;;;;;15.95;64.67;101852.91;5041744;28;20037;-70
2021/06/10 02:25:03;;;;;;;4.93;1.90;;;;;;;15.92;64.55;101856.66;5025806;28;20099;-70
2021/06/10 02:27:28;;;;;;;2.13;1.80;;;;;;;15.88;64.76;101844.91;5022492;28;20128;-70
2021/06/10 02:29:54;;;;;;;2.53;2.10;;;;;;;15.84;64.73;101841.00;5015623;28;20124;-71
2021/06/10 02:32:19;;;;;;;5.63;2.03;;;;;;;15.81;64.60;101850.97;5039805;28;20073;-70
2021/06/10 02:34:45;;;;;;;2.33;1.80;;;;;;;15.79;64.31;101845.09;5023582;28;20063;-70
2021/06/10 02:37:12;;;;;;;5.05;2.03;;;;;;;15.73;64.57;101846.53;5024899;28;20371;-70
2021/06/10 02:39:40;;;;;;;3.17;1.42;;;;;;;15.70;64.69;101846.84;5025881;28;20063;-71
2021/06/10 02:42:07;;;;;;;5.93;1.88;;;;;;;15.65;64.96;101847.34;5038562;28;20033;-70
2021/06/10 02:44:33;;;;;;;3.13;2.00;;;;;;;15.62;64.69;101852.09;5024833;28;20211;-70
2021/06/10 02:47:03;;;;;;;2.85;1.90;;;;;;;15.58;64.95;101848.97;5024250;28;20025;-70
2021/06/10 02:49:31;;;;;;;4.50;2.05;;;;;;;15.53;65.17;101849.47;5025435;28;20037;-70
2021/06/10 02:51:58;;;;;;;9.40;2.35;;;;;;;15.48;65.33;101851.75;5039610;28;20136;-70
2021/06/10 02:54:24;;;;;;;4.20;1.80;;;;;;;15.44;65.42;101853.03;5034369;28;20156;-70
2021/06/10 02:56:50;;;;;;;2.40;1.58;;;;;;;15.40;65.47;101848.31;5023283;28;20046;-70
2021/06/10 02:59:19;;;;;;;6.18;1.98;;;;;;;15.36;65.39;101851.25;5024521;28;20433;-70
2021/06/10 03:01:46;;;;;;;2.75;1.88;;;;;;;15.33;nan;101854.19;5023903;28;20123;-70
2021/06/10 03:04:14;;;;;;;9.13;2.17;;;;;;;15.31;65.60;101848.31;5022342;28;20029;-70
2021/06/10 03:06:40;;;;;;;2.47;1.90;;;;;;;15.29;65.73;101847.63;5023550;28;20033;-70
2021/06/10 03:09:07;;;;;;;2.70;1.90;;;;;;;15.24;66.30;101851.72;5023850;28;20067;-70
2021/06/10 03:11:36;;;;;;;2.13;1.77;;;;;;;15.18;66.58;101851.41;5034875;28;20372;-70
2021/06/10 03:14:02;;;;;;;5.93;1.80;;;;;;;15.13;67.00;101847.63;5024524;28;20038;-70
2021/06/10 03:16:27;;;;;;;3.75;1.73;;;;;;;15.11;66.67;101854.81;5025629;28;20037;-70
2021/06/10 03:18:56;;;;;;;3.53;2.00;;;;;;;15.08;66.64;101853.31;5023632;28;20025;-70
2021/06/10 03:21:23;;;;;;;6.28;2.47;;;;;;;15.05;66.53;101858.88;5023007;28;20072;-70
2021/06/10 03:23:49;;;;;;;3.35;2.05;;;;;;;15.04;66.55;101859.03;5038530;28;20065;-70
2021/06/10 03:26:18;;;;;;;5.35;1.63;;;;;;;14.98;66.64;101850.84;5023181;28;20028;-70
2021/06/10 03:28:43;;;;;;;2.67;1.88;;;;;;;14.96;66.40;101855.44;5023416;28;20033;-70
2021/06/10 03:31:09;;;;;;;4.45;2.08;;;;;;;14.93;66.63;101857.53;5045883;28;20394;-70
2021/06/10 03:33:34;;;;;;;3.13;1.90;;;;;;;14.90;66.66;101855.22;5023117;28;20044;-70
2021/06/10 03:36:01;;;;;;;2.50;2.17;;;;;;;14.88;66.74;101855.41;5022425;28;20045;-70
2021/06/10 03:38:27;;;;;;;6.97;1.95;;;;;;;14.85;66.90;101850.50;5022320;28;20556;-70
2021/06/10 03:40:54;;;;;;;2.45;1.80;;;;;;;14.84;67.11;101845.44;5022739;28;20029;-70
2021/06/10 03:43:21;;;;;;;2.50;2.20;;;;;;;14.82;66.82;101850.81;5023665;28;20078;-70
2021/06/10 03:45:46;;;;;;;3.58;2.08;;;;;;;14.80;67.05;101852.75;5024071;28;20442;-70
2021/06/10 03:48:13;;;;;;;4.35;2.13;;;;;;;14.78;67.08;101849.50;5038500;28;20184;-70
2021/06/10 03:50:40;;;;;;;3.03;2.10;;;;;;;14.73;67.28;101847.38;5022674;28;20531;-70
2021/06/10 03:53:06;;;;;;;5.82;2.20;;;;;;;14.71;67.40;101844.09;5024783;28;21053;-70
2021/06/10 03:55:32;;;;;;;4.95;2.10;;;;;;;14.71;67.48;101849.31;5039620;28;20032;-70
2021/06/10 03:57:58;;;;;;;4.57;2.08;;;;;;;14.70;67.62;101852.88;5023500;28;20037;-70
2021/06/10 04:00:24;;;;;;;6.53;2.28;;;;;;;14.68;67.95;101838.38;5022736;28;20187;-70
2021/06/10 04:02:49;;;;;;;4.20;2.28;;;;;;;14.68;67.80;101846.19;5001348;28;20532;-70
2021/06/10 04:05:14;;;;;;;2.95;2.10;;;;;;;14.69;67.93;101847.81;5027050;28;20087;-70
2021/06/10 04:07:40;;;;;;;3.33;2.00;;;;;;;14.70;67.66;101849.47;5021708;28;20307;-70
2021/06/10 04:10:06;;;;;;;3.75;2.20;;;;;;;14.69;67.74;101842.59;5038239;28;20592;-70
2021/06/10 04:12:31;;;;;;;4.22;2.08;;;;;;;14.70;67.74;101836.41;5042785;28;20523;-70
2021/06/10 04:14:57;;;;;;;6.55;2.17;;;;;;;14.68;68.02;101836.56;5027407;28;20079;-70
2021/06/10 04:17:22;;;;;;;2.40;1.88;;;;;;;14.68;68.31;101831.34;5027531;28;20521;-70
2021/06/10 04:19:48;;;;;;;5.25;2.20;;;;;;;14.70;68.46;101836.41;5021606;28;20076;-70
2021/06/10 04:22:13;;;;;;;3.38;2.10;;;;;;;14.67;68.82;101836.72;5026719;28;20029;-70
2021/06/10 04:24:39;;;;;;;5.03;2.30;;;;;;;14.64;68.96;101837.06;5043537;28;20083;-70
2021/06/10 04:27:05;;;;;;;4.07;2.35;;;;;;;14.63;69.25;101835.41;5038361;28;20041;-70
2021/06/10 04:29:30;;;;;;;3.65;2.53;;;;;;;14.65;69.10;101847.31;5041118;28;20040;-70
2021/06/10 04:31:55;;;;;;;2.92;2.17;;;;;;;14.68;69.03;101847.00;5027731;28;20041;-70
2021/06/10 04:34:21;;;;;;;2.72;1.92;;;;;;;14.73;68.97;101843.91;5026624;28;20533;-70
2021/06/10 04:36:47;;;;;;;6.97;2.40;;;;;;;14.73;69.24;101843.91;5025689;28;20050;-70
2021/06/10 04:39:12;;;;;;;4.75;2.58;;;;;;;14.75;69.51;101844.59;5041052;28;20053;-70
2021/06/10 04:41:37;;;;;;;4.90;2.10;;;;;;;14.79;69.60;101841.50;5027503;28;20400;-70
2021/06/10 04:44:04;;;;;;;3.50;2.17;;;;;;;14.85;69.71;101849.69;5024806;28;20498;-70
2021/06/10 04:46:29;;;;;;;4.40;2.38;;;;;;;14.89;69.43;101843.97;5023608;28;20053;-70
2021/06/10 04:48:56;;;;;;;5.57;2.75;;;;;;;14.94;69.72;101852.16;5026202;28;20114;-70
2021/06/10 04:51:25;;;;;;;3.58;2.45;;;;;;;15.02;69.60;101853.16;5026444;28;20429;-70
2021/06/10 04:53:53;;;;;;;5.38;2.38;;;;;;;15.08;69.51;101850.72;5026533;28;20084;-70
2021/06/10 04:56:19;;;;;;;8.35;3.17;;;;;;;15.17;69.59;101844.53;5040006;28;20152;-70
2021/06/10 04:58:44;;;;;;;4.03;2.25;;;;;;;15.26;69.21;101853.22;5025698;28;20870;-70
2021/06/10 05:01:10;;;;;;;5.47;2.60;;;;;;;15.36;68.74;101847.81;5040479;28;20029;-70
2021/06/10 05:03:35;;;;;;;4.00;2.60;;;;;;;15.46;68.87;101848.47;5041509;28;20128;-70
2021/06/10 05:06:01;;;;;;;6.13;2.40;;;;;;;15.58;68.84;101843.75;5018940;28;20505;-70
2021/06/10 05:08:26;;;;;;;3.83;2.60;;;;;;;15.69;69.23;101837.34;5025812;28;20095;-70
2021/06/10 05:10:52;;;;;;;7.00;3.22;;;;;;;15.83;68.98;101846.38;5027931;28;20047;-70
2021/06/10 05:13:17;;;;;;;7.43;3.25;;;;;;;15.98;68.94;101849.97;5024225;28;20029;-70
2021/06/10 05:15:43;;;;;;;5.32;2.85;;;;;;;16.15;68.75;101835.84;5026370;28;20396;-70
2021/06/10 05:18:09;;;;;;;6.22;3.47;;;;;;;16.36;68.47;101842.34;5025275;28;20492;-70
2021/06/10 05:20:34;;;;;;;7.22;4.00;;;;;;;16.52;68.39;101836.25;5026569;28;20497;-70
2021/06/10 05:23:00;;;;;;;7.88;3.20;;;;;;;16.74;68.00;101842.50;5023362;28;20132;-70
2021/06/10 05:25:25;;;;;;;5.10;3.33;;;;;;;16.98;67.84;101846.81;5026385;28;20057;-70
2021/06/10 05:27:51;;;;;;;6.72;3.70;;;;;;;17.21;66.84;101844.22;5026216;28;20107;-70
2021/06/10 05:30:17;;;;;;;6.25;3.63;;;;;;;17.48;66.00;101849.94;5023998;28;20029;-70
2021/06/10 05:32:42;;;;;;;7.10;4.07;;;;;;;17.73;65.43;101844.50;5025817;28;20045;-71
2021/06/10 05:35:08;;;;;;;8.18;4.40;;;;;;;17.96;64.91;101842.63;5040587;28;20040;-71
2021/06/10 05:37:33;;;;;;;5.47;4.00;;;;;;;18.21;64.14;101835.31;5021252;28;20958;-71
2021/06/10 05:39:58;;;;;;;6.90;4.30;;;;;;;18.52;62.97;101836.13;5024769;28;20395;-70
2021/06/10 05:42:24;;;;;;;6.53;3.85;;;;;;;18.81;61.47;101836.06;5040072;28;20033;-70
2021/06/10 05:44:49;;;;;;;9.25;4.65;;;;;;;19.13;60.05;101835.78;5040471;28;20041;-71
2021/06/10 05:47:15;;;;;;;7.68;4.10;;;;;;;19.43;58.77;101837.28;5027989;28;20084;-71
2021/06/10 05:49:40;;;;;;;8.25;4.85;;;;;;;19.72;57.65;101835.53;5027957;28;20048;-71
2021/06/10 05:52:06;;;;;;;9.70;4.13;;;;;;;20.05;56.86;101837.53;5041066;28;20034;-71
2021/06/10 05:54:31;;;;;;;10.27;4.03;;;;;;;20.38;56.34;101837.72;5040494;28;20106;-71
2021/06/10 05:56:58;;;;;;;9.52;4.68;;;;;;;20.66;55.38;101828.91;5025072;28;20037;-71
2021/06/10 05:59:24;;;;;;;10.93;4.70;;;;;;;20.92;53.50;101827.38;5025116;28;20039;-71
2021/06/10 06:01:50;;;;;;;10.45;4.75;;;;;;;21.13;52.79;101832.47;5040373;28;20037;-71
2021/06/10 06:04:15;;;;;;;10.25;4.40;;;;;;;21.36;51.42;101826.81;5027126;28;20505;-71
2021/06/10 06:06:41;;;;;;;9.02;3.75;;;;;;;21.72;50.96;101825.59;5025464;28;20272;-72
2021/06/10 06:09:08;;;;;;;6.53;3.10;;;;;;;22.11;50.94;101833.63;5022414;28;20490;-71
2021/06/10 06:11:34;;;;;;;8.05;4.20;;;;;;;22.42;49.53;101829.50;5039235;28;20048;-71
2021/06/10 06:16:31;;;;;;;3.83;3.03;;;;;;;22.98;47.94;101836.72;5023350;28;20105;-71
2021/06/10 06:18:58;;;;;;;9.57;3.67;;;;;;;23.05;47.26;101832.19;5024544;28;20307;-71
2021/06/10 06:21:23;;;;;;;9.05;3.65;;;;;;;23.20;45.08;101829.25;5023549;28;20052;-72
2021/06/10 06:23:49;;;;;;;11.27;3.72;;;;;;;23.60;45.82;101836.03;5024276;28;20478;-72
2021/06/10 06:26:15;;;;;;;5.57;3.03;;;;;;;23.94;44.70;101839.19;5023476;28;20014;-72
2021/06/10 06:28:41;;;;;;;6.53;3.08;;;;;;;24.16;42.61;101831.63;5024467;28;20107;-72
2021/06/10 06:31:07;;;;;;;4.30;2.20;;;;;;;24.46;42.72;101835.09;5023835;28;20491;-72
2021/06/10 06:33:33;;;;;;;5.22;2.28;;;;;;;24.74;42.67;101839.06;5022956;28;20037;-72
2021/06/10 06:35:59;;;;;;;4.93;2.80;;;;;;;24.82;40.96;101833.41;5022584;28;20083;-72
2021/06/10 06:38:25;;;;;;;6.28;3.20;;;;;;;24.99;42.20;101844.19;5039256;28;20263;-72
2021/06/10 06:40:50;;;;;;;2.58;1.83;;;;;;;25.22;40.36;101840.78;5021463;28;20025;-72
2021/06/10 06:43:16;;;;;;;4.88;2.13;;;;;;;25.40;39.19;101836.44;5020889;28;20030;-72
2021/06/10 06:45:42;;;;;;;3.15;1.80;;;;;;;25.78;38.91;101833.31;5024901;28;20037;-72
2021/06/10 06:48:08;;;;;;;7.57;2.00;;;;;;;25.99;37.67;101836.41;5020895;28;20025;-72
2021/06/10 06:50:34;;;;;;;5.30;2.38;;;;;;;26.11;36.94;101841.72;5033707;28;20829;-73
2021/06/10 06:52:59;;;;;;;3.28;1.58;;;;;;;26.31;36.88;101836.00;5021306;28;21210;-72
2021/06/10 06:55:25;;;;;;;3.28;2.22;;;;;;;26.47;36.12;101824.59;5040952;28;20551;-72
2021/06/10 06:57:50;;;;;;;4.47;1.90;;;;;;;26.69;33.12;101834.59;5036226;28;20025;-72
2021/06/10 07:00:16;;;;;;;3.13;1.95;;;;;;;26.81;34.77;101840.66;5019608;28;20068;-72
2021/06/10 07:02:42;;;;;;;2.60;1.80;;;;;;;27.22;34.99;101845.84;5037999;28;20138;-72
2021/06/10 07:05:08;;;;;;;3.22;1.58;;;;;;;27.54;34.37;101840.78;5022688;28;20037;-73
2021/06/10 07:07:33;;;;;;;4.85;1.65;;;;;;;27.50;33.84;101847.63;5022978;28;20033;-73
2021/06/10 07:09:59;;;;;;;7.00;1.70;;;;;;;27.64;33.02;101850.75;5020369;28;20159;-72
2021/06/10 07:12:25;;;;;;;3.53;1.58;;;;;;;27.86;32.74;101845.44;5019796;28;20037;-73
2021/06/10 07:14:51;;;;;;;3.45;2.00;;;;;;;27.80;33.91;101839.22;5024190;28;20375;-73
2021/06/10 07:17:16;;;;;;;4.57;1.77;;;;;;;27.75;31.55;101833.84;5024966;28;20044;-72
2021/06/10 07:19:42;;;;;;;4.53;1.92;;;;;;;28.04;31.61;101837.16;5022616;28;20033;-72
2021/06/10 07:22:09;;;;;;;5.20;1.90;;;;;;;28.25;32.60;101840.06;5035825;28;20037;-73
2021/06/10 07:24:35;;;;;;;3.55;1.83;;;;;;;28.14;31.40;101842.63;5038678;28;20398;-72
2021/06/10 07:27:00;;;;;;;4.88;2.17;;;;;;;28.38;31.46;101852.22;5025058;28;20037;-73
2021/06/10 07:29:26;;;;;;;3.15;1.80;;;;;;;28.54;31.77;101846.81;5020114;28;20038;-73
2021/06/10 07:31:51;;;;;;;1.45;1.33;;;;;;;28.90;30.73;101852.47;5021506;28;20546;-73
2021/06/10 07:34:17;;;;;;;5.97;1.83;;;;;;;28.95;31.50;101856.25;5024157;28;20091;-72
2021/06/10 07:36:42;;;;;;;4.95;1.63;;;;;;;28.96;30.51;101864.00;5039696;28;20030;-73
2021/06/10 07:39:09;;;;;;;4.55;1.83;;;;;;;28.99;30.07;101857.34;5021328;28;20029;-73
2021/06/10 07:41:36;;;;;;;5.63;2.10;;;;;;;29.07;29.67;101865.69;5034194;28;20078;-73
2021/06/10 07:44:02;;;;;;;3.38;2.20;;;;;;;28.56;29.84;101859.09;5021785;28;20034;-73
2021/06/10 07:46:27;;;;;;;7.40;2.55;;;;;;;28.56;30.81;101862.56;5022949;28;20045;-73
2021/06/10 07:48:53;;;;;;;5.78;2.08;;;;;;;28.56;31.28;101856.41;5023878;28;20041;-72
2021/06/10 07:51:18;;;;;;;8.07;2.35;;;;;;;28.59;31.87;101862.06;5022222;28;20037;-73
2021/06/10 07:53:44;;;;;;;3.40;2.10;;;;;;;29.06;29.74;101855.25;5026949;28;20091;-73
2021/06/10 07:56:09;;;;;;;5.07;1.92;;;;;;;29.18;29.64;101855.94;5023187;28;20509;-73
2021/06/10 07:58:35;;;;;;;4.38;2.10;;;;;;;28.82;30.92;101854.78;5026919;28;20134;-73
2021/06/10 08:01:02;;;;;;;4.07;1.90;;;;;;;29.05;30.11;101851.81;5023505;28;21010;-73
2021/06/10 08:03:27;;;;;;;5.63;2.17;;;;;;;29.25;30.06;101861.88;5041148;28;20048;-73
2021/06/10 08:05:56;;;;;;;3.65;1.83;;;;;;;29.34;29.56;101858.72;5028544;28;20268;-73
2021/06/10 08:08:23;;;;;;;4.00;1.73;;;;;;;29.74;31.72;101860.84;5033733;28;20048;-73
2021/06/10 08:10:49;;;;;;;5.25;1.63;;;;;;;29.86;30.80;101856.09;5025862;28;20033;-73
2021/06/10 08:13:17;;;;;;;2.80;1.85;;;;;;;30.19;28.38;101850.59;5027236;28;20065;-73
2021/06/10 08:15:42;;;;;;;4.97;1.98;;;;;;;30.22;27.73;101853.53;5023764;28;20124;-73
2021/06/10 08:18:08;;;;;;;4.95;2.03;;;;;;;30.00;29.57;101861.75;5042182;28;20765;-73
2021/06/10 08:20:34;;;;;;;6.00;2.00;;;;;;;30.19;29.26;101861.28;5026849;28;20041;-73
2021/06/10 08:23:01;;;;;;;5.07;1.83;;;;;;;30.24;29.01;101861.31;5041638;28;20116;-73
2021/06/10 08:25:29;;;;;;;3.55;1.65;;;;;;;30.43;28.31;101853.63;5026869;28;20034;-73
2021/06/10 08:27:56;;;;;;;5.28;1.77;;;;;;;30.81;28.63;101854.19;5023932;28;20268;-73
2021/06/10 08:30:22;;;;;;;3.55;2.15;;;;;;;30.47;28.21;101849.34;5022378;28;20044;-73
2021/06/10 08:32:48;;;;;;;4.03;1.80;;;;;;;30.64;29.01;101857.13;5040477;28;20063;-73
2021/06/10 08:35:13;;;;;;;8.20;1.92;;;;;;;30.72;28.26;101855.81;5025682;28;20045;-73
2021/06/10 08:37:39;;;;;;;4.75;1.88;;;;;;;30.84;28.63;101849.13;5027026;28;20021;-73
2021/06/10 08:40:08;;;;;;;3.88;2.30;;;;;;;30.75;27.20;101857.97;5025535;28;20029;-73
2021/06/10 08:42:37;;;;;;;11.18;6.45;;;;;;;30.86;29.34;101854.22;5040370;28;20224;-73
2021/06/10 08:45:05;;;;;;;6.80;3.28;;;;;;;31.28;27.75;101855.00;5025626;28;20055;-73
2021/06/10 08:47:31;;;;;;;3.60;2.13;;;;;;;31.39;27.98;101854.72;5025156;28;20156;-73
2021/06/10 08:49:57;;;;;;;4.35;2.45;;;;;;;31.28;28.19;101857.69;5027544;28;20033;-73
2021/06/10 08:52:23;;;;;;;4.70;2.28;;;;;;;31.10;27.59;101854.50;5027621;28;20135;-73
2021/06/10 08:54:48;;;;;;;3.72;2.28;;;;;;;31.07;29.51;101856.91;5028725;28;20042;-73
2021/06/10 08:57:14;;;;;;;5.63;1.92;;;;;;;31.11;28.43;101852.63;5040632;28;20037;-73
2021/06/10 08:59:39;;;;;;;2.95;1.90;;;;;;;31.12;28.63;101852.34;5026877;28;20136;-73
2021/06/10 09:02:05;;;;;;;6.35;2.42;;;;;;;30.57;30.34;101859.25;5023970;28;20033;-73
2021/06/10 09:04:31;;;;;;;8.82;2.60;;;;;;;29.96;30.44;101862.56;5026871;28;20040;-73
2021/06/10 09:06:59;;;;;;;3.45;1.77;;;;;;;29.06;32.11;101869.41;5026460;28;20383;-73
2021/06/10 09:09:36;;;;;;;5.93;1.77;;;;;;;28.73;34.00;101865.94;5027318;28;20041;-73
2021/06/10 09:12:08;;;;;;;3.42;2.20;;;;;;;28.78;34.93;101870.50;5027075;28;20041;-73
2021/06/10 09:14:53;;;;;;;4.70;2.17;;;;;;;29.22;34.70;101870.38;5042278;28;20606;-73
2021/06/10 09:17:29;;;;;;;7.45;2.50;;;;;;;29.85;31.11;101869.72;5037957;28;20037;-73
2021/06/10 09:19:54;;;;;;;2.50;1.83;;;;;;;29.77;32.26;101864.88;5023069;28;20538;-73
2021/06/10 09:22:25;;;;;;;2.72;2.00;;;;;;;29.51;33.49;101868.16;5039916;28;20082;-73
2021/06/10 09:24:51;;;;;;;3.75;2.20;;;;;;;29.21;33.74;101875.97;5026393;28;20038;-73
2021/06/10 09:27:16;;;;;;;4.13;2.22;;;;;;;28.80;35.90;101878.25;5023917;28;20490;-73
2021/06/10 09:29:52;;;;;;;4.38;2.72;;;;;;;28.73;34.94;101876.59;5043179;28;20045;-73
2021/06/10 09:32:23;;;;;;;6.85;2.35;;;;;;;29.28;34.49;101873.91;5024997;28;20084;-73
2021/06/10 09:35:05;;;;;;;5.70;2.33;;;;;;;30.01;32.60;101876.75;5023137;28;20068;-73
2021/06/10 09:37:39;;;;;;;2.88;1.52;;;;;;;30.41;32.59;101867.25;5025164;28;20037;-73
2021/06/10 09:40:07;;;;;;;6.00;2.40;;;;;;;30.75;30.77;101858.75;5026020;28;20156;-73
2021/06/10 09:42:38;;;;;;;3.35;2.00;;;;;;;30.78;30.36;101862.75;5044645;28;20099;-73
2021/06/10 09:45:06;;;;;;;3.50;2.05;;;;;;;30.73;33.35;101860.09;5026542;28;20079;-72
2021/06/10 09:47:41;;;;;;;5.88;2.13;;;;;;;30.67;30.41;101861.97;5023762;28;20063;-73
2021/06/10 09:50:16;;;;;;;4.35;2.35;;;;;;;30.62;30.60;101862.75;5028527;28;20041;-73
2021/06/10 09:52:47;;;;;;;6.55;1.77;;;;;;;30.41;31.64;101864.59;5026029;28;20032;-73
2021/06/10 09:55:34;;;;;;;7.75;3.20;;;;;;;30.38;31.64;101858.97;5041797;28;20072;-73
2021/06/10 09:58:12;;;;;;;2.70;1.77;;;;;;;29.85;33.36;101873.19;5024955;28;20029;-73
2021/06/10 10:00:49;;;;;;;4.50;2.03;;;;;;;30.16;32.31;101875.16;5026984;28;20033;-73
2021/06/10 10:03:23;;;;;;;4.68;2.42;;;;;;;29.91;31.60;101866.00;5024384;28;20101;-73
2021/06/10 10:05:55;;;;;;;9.60;2.50;;;;;;;30.03;32.90;101874.59;5036165;28;20039;-73
2021/06/10 10:08:20;;;;;;;5.00;2.90;;;;;;;30.38;32.27;101861.63;5036719;28;20041;-73
2021/06/10 10:10:46;;;;;;;3.47;2.50;;;;;;;30.15;32.64;101870.91;5024550;28;20224;-73
2021/06/10 10:13:16;;;;;;;6.40;2.60;;;;;;;29.45;33.24;101876.41;5020164;28;20029;-73
2021/06/10 10:15:42;;;;;;;5.53;2.22;;;;;;;29.72;33.18;101865.59;5024095;28;20079;-73
2021/06/10 10:18:08;;;;;;;4.60;2.50;;;;;;;29.82;33.09;101870.22;5039775;28;20755;-73
2021/06/10 10:20:33;;;;;;;8.77;2.83;;;;;;;30.24;33.29;101861.31;5026614;28;20044;-73
2021/06/10 10:22:59;;;;;;;3.65;2.80;;;;;;;30.08;32.93;101863.94;5024908;28;20065;-73
2021/06/10 10:25:25;;;;;;;6.90;3.10;;;;;;;29.55;33.64;101860.44;5025989;28;20072;-73
2021/06/10 10:27:51;;;;;;;3.13;2.20;;;;;;;29.01;35.38;101866.72;5037611;28;20068;-73
2021/06/10 10:30:21;;;;;;;6.28;2.95;;;;;;;28.83;34.35;101856.41;5038617;28;20612;-73
2021/06/10 10:32:47;;;;;;;5.38;2.53;;;;;;;29.27;34.14;101853.56;5038618;28;20037;-73
2021/06/10 10:35:26;;;;;;;4.82;2.20;;;;;;;29.43;33.47;101863.31;5024179;28;20068;-74
2021/06/10 10:37:54;;;;;;;8.80;2.80;;;;;;;29.69;34.60;101852.78;5025809;28;20029;-73
2021/06/10 10:40:29;;;;;;;6.82;2.80;;;;;;;29.69;34.01;101845.56;5026901;28;20029;-73
2021/06/10 10:43:12;;;;;;;5.43;3.30;;;;;;;29.43;32.85;101849.97;5041221;28;20029;-74
2021/06/10 10:45:43;;;;;;;3.63;2.50;;;;;;;29.78;32.87;101840.56;5046906;28;20069;-73
2021/06/10 10:48:11;;;;;;;3.70;2.28;;;;;;;30.12;32.19;101839.34;5023254;28;20635;-73
2021/06/10 10:50:39;;;;;;;5.80;3.35;;;;;;;29.74;33.14;101839.44;5024838;28;20041;-73
2021/06/10 10:53:09;;;;;;;4.68;2.80;;;;;;;29.61;32.19;101835.38;5021322;28;20498;-73
2021/06/10 10:55:35;;;;;;;6.47;2.13;;;;;;;29.67;33.63;101831.66;5022538;28;20038;-73
2021/06/10 10:58:03;;;;;;;4.68;2.53;;;;;;;29.70;34.38;101839.16;5023557;28;20037;-73
2021/06/10 11:00:49;;;;;;;3.25;2.22;;;;;;;29.39;35.01;101840.84;5039496;28;20033;-73
2021/06/10 11:03:32;;;;;;;10.10;2.83;;;;;;;29.27;33.29;101843.72;5021786;28;20028;-73
2021/06/10 11:06:39;;;;;;;4.43;2.30;;;;;;;29.23;34.45;101839.13;5037289;28;20045;-73
2021/06/10 11:09:13;;;;;;;6.60;3.10;;;;;;;29.55;32.12;101824.91;5036750;28;20041;-73
2021/06/10 11:11:53;;;;;;;4.25;2.33;;;;;;;29.60;33.39;101824.94;5023181;28;20041;-73
2021/06/10 11:14:58;;;;;;;3.63;2.28;;;;;;;29.27;34.71;101827.69;5019312;28;20025;-73
2021/06/10 11:17:32;;;;;;;3.03;2.15;;;;;;;29.43;33.23;101830.47;5039615;28;20053;-73
2021/06/10 11:20:01;;;;;;;4.22;2.40;;;;;;;29.51;32.43;101825.41;5040683;28;20030;-73
2021/06/10 11:22:29;;;;;;;5.53;2.60;;;;;;;29.94;34.61;101822.72;5026808;28;20037;-73
2021/06/10 11:24:54;;;;;;;7.07;1.95;;;;;;;30.12;31.06;101812.59;5026768;28;20041;-73
2021/06/10 11:27:40;;;;;;;3.33;2.08;;;;;;;30.25;31.59;101814.75;5042810;28;20033;-73
2021/06/10 11:30:17;;;;;;;4.18;1.98;;;;;;;30.48;33.24;101813.53;5041318;28;20076;-76